createdAt,value
2022-09-20T00:02:05.270Z,85.23
2022-09-20T00:04:35.346Z,85.30
2022-09-20T00:07:04.120Z,85.01
2022-09-20T00:09:32.797Z,85.30
2022-09-20T00:12:01.616Z,85.30
2022-09-20T00:14:30.257Z,85.42
2022-09-20T00:16:58.915Z,84.86
2022-09-20T00:19:27.868Z,85.92
2022-09-20T00:21:58.330Z,85.80
2022-09-20T00:24:26.898Z,85.88
2022-09-20T00:26:55.534Z,85.97
2022-09-20T00:29:25.799Z,85.95
2022-09-20T00:31:54.712Z,85.96
2022-09-20T00:34:33.399Z,86.08
2022-09-20T00:37:03.467Z,85.57
2022-09-20T00:39:32.111Z,85.48
2022-09-20T00:42:00.710Z,85.36
2022-09-20T00:45:00.750Z,85.54
2022-09-20T00:47:38.629Z,85.57
2022-09-20T00:50:23.430Z,85.26
2022-09-20T00:52:57.870Z,85.14
2022-09-20T00:55:27.610Z,85.16
2022-09-20T00:57:56.095Z,85.21
2022-09-20T01:00:25.228Z,85.34
2022-09-20T01:02:58.907Z,85.51
2022-09-20T01:05:28.321Z,85.72
2022-09-20T01:07:58.937Z,85.61
2022-09-20T01:10:27.690Z,85.85
2022-09-20T01:12:56.382Z,85.79
2022-09-20T01:15:28.076Z,86.01
2022-09-20T01:17:59.539Z,86.14
2022-09-20T01:20:32.323Z,85.80
2022-09-20T01:23:18.515Z,86.06
2022-09-20T01:26:08.522Z,85.90
2022-09-20T01:28:42.821Z,86.11
2022-09-20T01:31:17.274Z,85.71
2022-09-20T01:33:51.240Z,85.54
2022-09-20T01:36:26.728Z,85.70
2022-09-20T01:39:05.840Z,85.47
2022-09-20T01:41:38.978Z,85.74
2022-09-20T01:44:18.093Z,85.38
2022-09-20T01:46:52.149Z,85.59
2022-09-20T01:49:32.219Z,85.12
2022-09-20T01:52:27.708Z,85.25
2022-09-20T01:55:25.302Z,85.23
2022-09-20T01:58:22.274Z,85.33
2022-09-20T02:01:13.644Z,85.36
2022-09-20T02:04:08.629Z,85.28
2022-09-20T02:07:06.283Z,85.28
2022-09-20T02:10:05.219Z,85.27
2022-09-20T02:12:53.552Z,85.27
2022-09-20T02:15:43.342Z,85.07
2022-09-20T02:18:25.922Z,85.06
2022-09-20T02:21:00.399Z,85.04
2022-09-20T02:23:41.043Z,85.43
2022-09-20T02:26:26.831Z,85.07
2022-09-20T02:29:07.867Z,85.31
2022-09-20T02:31:56.805Z,85.53
2022-09-20T02:34:48.180Z,85.79
2022-09-20T02:37:48.692Z,85.57
2022-09-20T02:40:28.806Z,85.45
2022-09-20T02:43:09.275Z,86.08
2022-09-20T02:45:43.975Z,85.64
2022-09-20T02:48:16.160Z,85.83
2022-09-20T02:50:56.155Z,85.42
2022-09-20T02:53:40.070Z,85.37
2022-09-20T02:56:19.031Z,85.27
2022-09-20T02:58:56.691Z,85.09
2022-09-20T03:01:37.406Z,85.07
2022-09-20T03:04:21.353Z,84.96
2022-09-20T03:07:02.902Z,85.33
2022-09-20T03:09:40.000Z,85.41
2022-09-20T03:12:20.682Z,85.20
2022-09-20T03:15:03.711Z,85.51
2022-09-20T03:17:42.787Z,85.55
2022-09-20T03:20:23.951Z,85.21
2022-09-20T03:23:03.484Z,85.24
2022-09-20T03:25:52.362Z,85.11
2022-09-20T03:28:36.019Z,85.43
2022-09-20T03:31:16.734Z,85.55
2022-09-20T03:33:53.739Z,85.31
2022-09-20T03:36:41.769Z,84.85
2022-09-20T03:39:31.444Z,84.70
2022-09-20T03:42:09.319Z,84.94
2022-09-20T03:45:05.801Z,85.48
2022-09-20T03:47:56.671Z,85.39
2022-09-20T03:50:50.574Z,85.64
2022-09-20T03:53:46.688Z,85.33
2022-09-20T03:56:47.299Z,85.20
2022-09-20T03:59:33.332Z,85.45
2022-09-20T04:02:27.407Z,85.14
2022-09-20T04:05:00.799Z,85.49
2022-09-20T04:07:35.909Z,85.50
2022-09-20T04:10:18.808Z,85.46
2022-09-20T04:13:07.450Z,85.81
2022-09-20T04:15:47.728Z,85.32
2022-09-20T04:18:28.352Z,85.24
2022-09-20T04:21:04.440Z,85.95
2022-09-20T04:23:47.392Z,85.56
2022-09-20T04:26:22.139Z,86.18
2022-09-20T04:28:58.808Z,86.42
2022-09-20T04:31:37.821Z,85.75
2022-09-20T04:34:15.873Z,85.72
2022-09-20T04:36:57.600Z,85.88
2022-09-20T04:39:42.702Z,86.04
2022-09-20T04:42:34.650Z,86.00
2022-09-20T04:45:38.852Z,86.34
2022-09-20T04:48:28.491Z,86.78
2022-09-20T04:51:07.948Z,86.40
2022-09-20T04:53:52.684Z,86.75
2022-09-20T04:56:41.280Z,86.61
2022-09-20T04:59:12.060Z,87.14
2022-09-20T05:02:03.790Z,87.22
2022-09-20T05:04:54.680Z,86.96
2022-09-20T05:08:09.008Z,86.99
2022-09-20T05:11:06.566Z,86.89
2022-09-20T05:13:53.915Z,87.24
2022-09-20T05:16:32.525Z,87.29
2022-09-20T05:19:22.239Z,87.57
2022-09-20T05:22:25.470Z,87.39
2022-09-20T05:25:24.892Z,87.18
2022-09-20T05:27:58.871Z,86.97
2022-09-20T05:30:38.381Z,86.86
2022-09-20T05:33:20.731Z,87.02
2022-09-20T05:36:04.330Z,86.54
2022-09-20T05:38:45.811Z,86.66
2022-09-20T05:41:25.272Z,86.44
2022-09-20T05:44:06.415Z,86.38
2022-09-20T05:46:46.459Z,86.04
2022-09-20T05:49:25.890Z,86.10
2022-09-20T05:52:13.161Z,86.19
2022-09-20T05:55:04.133Z,85.92
2022-09-20T05:57:56.691Z,85.52
2022-09-20T06:00:31.686Z,85.17
2022-09-20T06:03:17.182Z,85.15
2022-09-20T06:05:56.460Z,85.39
2022-09-20T06:08:50.423Z,85.45
2022-09-20T06:11:34.958Z,85.08
2022-09-20T06:14:19.278Z,84.81
2022-09-20T06:17:00.730Z,84.66
2022-09-20T06:19:38.251Z,84.21
2022-09-20T06:22:18.294Z,83.91
2022-09-20T06:24:51.807Z,83.96
2022-09-20T06:27:25.859Z,84.33
2022-09-20T06:30:05.335Z,84.50
2022-09-20T06:32:34.912Z,84.69
2022-09-20T06:35:06.129Z,84.89
2022-09-20T06:37:53.962Z,84.52
2022-09-20T06:40:44.051Z,84.61
2022-09-20T06:43:14.627Z,84.59
2022-09-20T06:45:44.764Z,84.65
2022-09-20T06:48:15.363Z,84.27
2022-09-20T06:50:45.605Z,84.14
2022-09-20T06:53:19.404Z,83.83
2022-09-20T06:55:48.723Z,83.75
2022-09-20T06:58:17.264Z,83.50
2022-09-20T07:00:47.859Z,83.31
2022-09-20T07:03:16.494Z,83.30
2022-09-20T07:05:44.953Z,83.03
2022-09-20T07:08:13.883Z,82.85
2022-09-20T07:10:44.204Z,82.55
2022-09-20T07:13:14.045Z,82.50
2022-09-20T07:15:42.711Z,82.69
2022-09-20T07:18:12.645Z,82.63
2022-09-20T07:20:42.082Z,82.83
2022-09-20T07:23:10.722Z,82.48
2022-09-20T07:25:39.410Z,82.19
2022-09-20T07:28:08.010Z,82.18
2022-09-20T07:30:36.515Z,81.90
2022-09-20T07:33:05.165Z,81.91
2022-09-20T07:35:35.903Z,81.97
2022-09-20T07:38:04.518Z,82.04
2022-09-20T07:40:33.058Z,81.88
2022-09-20T07:43:02.128Z,81.71
2022-09-20T07:45:31.602Z,81.66
2022-09-20T07:48:00.279Z,81.43
2022-09-20T07:50:28.786Z,81.31
2022-09-20T07:52:59.029Z,81.05
2022-09-20T07:55:27.938Z,81.23
2022-09-20T07:57:57.600Z,81.08
2022-09-20T08:00:26.957Z,80.97
2022-09-20T08:03:01.605Z,80.54
2022-09-20T08:05:31.289Z,80.65
2022-09-20T08:08:01.484Z,80.58
2022-09-20T08:10:30.179Z,80.86
2022-09-20T08:15:49.818Z,80.91
2022-09-20T08:18:18.340Z,80.76
2022-09-20T08:20:46.864Z,80.80
2022-09-20T08:23:24.298Z,80.32
2022-09-20T08:25:53.183Z,79.66
2022-09-20T08:28:21.807Z,79.71
2022-09-20T08:30:50.339Z,79.52
2022-09-20T08:33:18.965Z,79.09
2022-09-20T08:35:50.456Z,79.09
2022-09-20T08:41:17.157Z,78.29
2022-09-20T08:43:53.128Z,78.14
2022-09-20T08:46:27.417Z,78.02
2022-09-20T08:48:56.631Z,77.84
2022-09-20T08:51:30.872Z,77.39
2022-09-20T08:54:01.495Z,76.85
2022-09-20T08:56:36.405Z,76.30
2022-09-20T08:59:08.277Z,76.06
2022-09-20T09:01:37.976Z,75.63
2022-09-20T09:04:13.866Z,75.50
2022-09-20T09:06:43.791Z,75.59
2022-09-20T09:09:20.249Z,76.03
2022-09-20T09:11:49.608Z,76.18
2022-09-20T09:14:36.425Z,76.15
2022-09-20T09:17:05.149Z,75.76
2022-09-20T09:19:43.968Z,74.79
2022-09-20T09:22:17.978Z,74.25
2022-09-20T09:25:07.306Z,74.42
2022-09-20T09:27:37.051Z,73.80
2022-09-20T09:30:20.462Z,73.11
2022-09-20T09:32:49.140Z,71.87
2022-09-20T09:35:32.938Z,71.41
2022-09-20T09:38:03.803Z,70.65
2022-09-20T09:40:34.739Z,70.35
2022-09-20T09:43:04.816Z,70.95
2022-09-20T09:45:36.389Z,71.04
2022-09-20T09:48:20.157Z,70.53
2022-09-20T09:50:48.932Z,69.77
2022-09-20T09:53:21.045Z,69.36
2022-09-20T09:56:14.325Z,69.66
2022-09-20T09:58:59.175Z,69.73
2022-09-20T10:01:38.549Z,70.36
2022-09-20T10:04:17.407Z,69.84
2022-09-20T10:06:56.389Z,70.16
2022-09-20T10:09:36.427Z,71.21
2022-09-20T10:12:23.041Z,71.66
2022-09-20T10:15:07.302Z,71.87
2022-09-20T10:17:52.538Z,72.02
2022-09-20T10:20:35.768Z,72.42
2022-09-20T10:23:45.236Z,72.33
2022-09-20T10:26:22.608Z,72.91
2022-09-20T10:29:08.583Z,73.14
2022-09-20T10:31:49.250Z,73.31
2022-09-20T10:34:40.149Z,72.45
2022-09-20T10:37:17.138Z,72.43
2022-09-20T10:39:55.616Z,72.15
2022-09-20T10:42:52.808Z,72.73
2022-09-20T10:45:59.485Z,72.28
2022-09-20T10:48:27.468Z,72.21
2022-09-20T10:51:02.149Z,72.04
2022-09-20T10:53:38.788Z,71.62
2022-09-20T10:56:24.479Z,71.42
2022-09-20T10:59:09.919Z,70.52
2022-09-20T11:01:50.598Z,69.48
2022-09-20T11:04:36.564Z,69.49
2022-09-20T11:07:16.869Z,69.49
2022-09-20T11:09:51.238Z,69.13
2022-09-20T11:12:28.851Z,68.73
2022-09-20T11:15:04.591Z,68.31
2022-09-20T11:17:40.241Z,67.01
2022-09-20T11:20:18.636Z,67.74
2022-09-20T11:22:51.439Z,66.89
2022-09-20T11:25:29.296Z,66.67
2022-09-20T11:28:04.349Z,66.06
2022-09-20T11:30:40.283Z,65.41
2022-09-20T11:33:19.379Z,65.19
2022-09-20T11:35:51.170Z,63.78
2022-09-20T11:38:27.642Z,63.64
2022-09-20T11:41:00.538Z,62.86
2022-09-20T11:43:31.369Z,62.81
2022-09-20T11:46:04.952Z,62.04
2022-09-20T11:48:38.907Z,62.18
2022-09-20T11:51:29.442Z,63.03
2022-09-20T11:54:18.486Z,62.44
2022-09-20T11:56:52.970Z,63.16
2022-09-20T11:59:31.999Z,62.07
2022-09-20T12:02:03.172Z,60.86
2022-09-20T12:04:38.510Z,61.00
2022-09-20T12:07:18.281Z,60.79
2022-09-20T12:09:52.814Z,61.73
2022-09-20T12:12:34.285Z,62.63
2022-09-20T12:15:06.274Z,63.34
2022-09-20T12:17:56.734Z,63.91
2022-09-20T12:20:47.124Z,64.91
2022-09-20T12:23:37.852Z,65.07
2022-09-20T12:26:10.915Z,65.20
2022-09-20T12:28:42.062Z,65.04
2022-09-20T12:31:32.621Z,64.90
2022-09-20T12:34:04.154Z,65.06
2022-09-20T12:36:36.388Z,64.50
2022-09-20T12:39:08.082Z,63.91
2022-09-20T12:41:50.902Z,63.10
2022-09-20T12:44:31.184Z,62.88
2022-09-20T12:47:02.306Z,62.40
2022-09-20T12:49:54.581Z,61.57
2022-09-20T12:52:43.752Z,60.97
2022-09-20T12:55:14.472Z,61.07
2022-09-20T12:57:44.585Z,60.58
2022-09-20T13:00:36.699Z,61.35
2022-09-20T13:03:14.975Z,61.60
2022-09-20T13:05:45.988Z,61.99
2022-09-20T13:08:17.873Z,61.98
2022-09-20T13:10:51.404Z,62.47
2022-09-20T13:13:35.093Z,63.24
2022-09-20T13:16:07.840Z,62.99
2022-09-20T13:18:38.981Z,64.53
2022-09-20T13:21:09.750Z,67.38
2022-09-20T13:23:48.691Z,70.01
2022-09-20T13:26:23.243Z,70.99
2022-09-20T13:28:59.464Z,70.87
2022-09-20T13:31:33.961Z,69.92
2022-09-20T13:34:22.124Z,69.66
2022-09-20T13:37:06.812Z,70.43
2022-09-20T13:39:38.413Z,70.86
2022-09-20T13:42:15.231Z,71.60
2022-09-20T13:44:45.597Z,72.75
2022-09-20T13:47:27.605Z,73.30
2022-09-20T13:50:03.053Z,73.94
2022-09-20T13:52:33.150Z,74.32
2022-09-20T13:55:02.494Z,75.11
2022-09-20T13:57:32.095Z,75.54
2022-09-20T14:00:03.194Z,75.76
2022-09-20T14:02:40.629Z,75.86
2022-09-20T14:05:18.890Z,76.57
2022-09-20T14:07:49.377Z,76.54
2022-09-20T14:10:31.529Z,76.51
2022-09-20T14:13:01.285Z,76.34
2022-09-20T14:15:34.969Z,76.44
2022-09-20T14:18:06.927Z,76.84
2022-09-20T14:20:35.876Z,77.19
2022-09-20T14:23:04.566Z,77.68
2022-09-20T14:25:34.858Z,77.60
2022-09-20T14:28:08.876Z,78.33
2022-09-20T14:30:39.248Z,78.19
2022-09-20T14:33:15.976Z,78.70
2022-09-20T14:35:49.557Z,79.18
2022-09-20T14:38:20.200Z,78.92
2022-09-20T14:40:52.150Z,78.99
2022-09-20T14:43:32.469Z,78.55
2022-09-20T14:46:05.721Z,78.47
2022-09-20T14:48:41.181Z,78.67
2022-09-20T14:51:26.878Z,78.87
2022-09-20T14:54:27.207Z,78.99
2022-09-20T14:56:57.987Z,78.95
2022-09-20T14:59:30.677Z,79.29
2022-09-20T15:02:04.597Z,79.32
2022-09-20T15:04:38.236Z,79.27
2022-09-20T15:07:08.768Z,79.27
2022-09-20T15:09:37.545Z,79.13
2022-09-20T15:12:08.552Z,79.35
2022-09-20T15:14:38.037Z,79.40
2022-09-20T15:17:08.659Z,79.38
2022-09-20T15:19:38.249Z,79.13
2022-09-20T15:22:06.985Z,79.66
2022-09-20T15:24:35.666Z,79.53
2022-09-20T15:27:04.599Z,79.72
2022-09-20T15:29:33.664Z,79.38
2022-09-20T15:32:03.223Z,79.38
2022-09-20T15:34:33.766Z,79.25
2022-09-20T15:37:02.428Z,79.40
2022-09-20T15:39:31.074Z,80.01
2022-09-20T15:42:00.077Z,80.61
2022-09-20T15:44:28.879Z,81.33
2022-09-20T15:46:57.449Z,81.68
2022-09-20T15:49:27.238Z,81.96
2022-09-20T15:51:57.340Z,82.31
2022-09-20T15:54:26.809Z,82.58
2022-09-20T15:56:55.526Z,82.77
2022-09-20T15:59:24.430Z,82.90
2022-09-20T16:01:53.071Z,83.45
2022-09-20T16:04:21.929Z,83.46
2022-09-20T16:06:51.569Z,83.95
2022-09-20T16:09:21.977Z,84.06
2022-09-20T16:11:50.757Z,84.05
2022-09-20T16:14:19.345Z,84.43
2022-09-20T16:16:48.019Z,84.77
2022-09-20T16:19:18.289Z,84.92
2022-09-20T16:21:53.601Z,84.89
2022-09-20T16:24:28.753Z,84.94
2022-09-20T16:26:57.792Z,85.13
2022-09-20T16:29:27.129Z,85.21
2022-09-20T16:31:57.772Z,85.22
2022-09-20T16:34:31.520Z,85.14
2022-09-20T16:37:02.342Z,84.90
2022-09-20T16:39:33.617Z,85.33
2022-09-20T16:42:04.705Z,85.24
2022-09-20T16:44:35.341Z,85.47
2022-09-20T16:47:08.312Z,85.17
2022-09-20T16:49:37.694Z,85.26
2022-09-20T16:52:06.631Z,85.58
2022-09-20T16:54:37.330Z,85.29
2022-09-20T16:57:06.443Z,85.41
2022-09-20T16:59:35.132Z,85.55
2022-09-20T17:02:03.851Z,85.62
2022-09-20T17:04:32.549Z,85.19
2022-09-20T17:07:02.262Z,85.49
2022-09-20T17:09:30.910Z,85.75
2022-09-20T17:12:01.603Z,85.31
2022-09-20T17:14:31.470Z,85.26
2022-09-20T17:16:59.789Z,85.59
2022-09-20T17:19:28.979Z,85.25
2022-09-20T17:21:57.630Z,85.81
2022-09-20T17:24:26.538Z,85.53
2022-09-20T17:26:56.430Z,85.56
2022-09-20T17:29:27.893Z,85.33
2022-09-20T17:31:59.771Z,85.77
2022-09-20T17:34:31.989Z,85.68
2022-09-20T17:37:01.900Z,85.50
2022-09-20T17:39:30.439Z,84.77
2022-09-20T17:41:59.111Z,85.20
2022-09-20T17:44:29.469Z,85.44
2022-09-20T17:46:58.225Z,85.16
2022-09-20T17:49:28.629Z,85.41
2022-09-20T17:51:57.777Z,85.16
2022-09-20T17:54:26.440Z,84.37
2022-09-20T17:56:56.261Z,84.95
2022-09-20T17:59:25.930Z,85.34
2022-09-20T18:01:56.149Z,84.36
2022-09-20T18:04:25.667Z,84.89
2022-09-20T18:06:55.737Z,84.56
2022-09-20T18:09:28.360Z,84.99
2022-09-20T18:11:57.716Z,84.82
2022-09-20T18:14:29.113Z,84.94
2022-09-20T18:17:02.536Z,84.30
2022-09-20T18:19:34.363Z,85.17
2022-09-20T18:22:04.701Z,84.90
2022-09-20T18:24:33.612Z,84.33
2022-09-20T18:27:02.842Z,85.18
2022-09-20T18:29:36.993Z,85.17
2022-09-20T18:32:09.246Z,84.81
2022-09-20T18:34:38.643Z,84.52
2022-09-20T18:37:14.392Z,84.81
2022-09-20T18:39:45.051Z,85.40
2022-09-20T18:42:14.536Z,85.11
2022-09-20T18:44:44.092Z,84.69
2022-09-20T18:47:14.252Z,85.18
2022-09-20T18:49:43.079Z,85.15
2022-09-20T18:52:13.312Z,85.73
2022-09-20T18:54:42.133Z,85.66
2022-09-20T18:57:12.142Z,85.15
2022-09-20T18:59:53.432Z,85.18
2022-09-20T19:02:45.282Z,86.07
2022-09-20T19:05:24.485Z,85.87
2022-09-20T19:08:04.530Z,85.77
2022-09-20T19:10:43.324Z,86.05
2022-09-20T19:13:24.869Z,85.55
2022-09-20T19:16:11.736Z,86.54
2022-09-20T19:19:08.754Z,86.42
2022-09-20T19:21:47.182Z,86.20
2022-09-20T19:24:26.969Z,86.47
2022-09-20T19:26:56.081Z,85.88
2022-09-20T19:29:27.080Z,86.35
2022-09-20T19:31:59.248Z,85.91
2022-09-20T19:34:31.402Z,86.11
2022-09-20T19:37:11.221Z,86.61
2022-09-20T19:39:55.878Z,86.46
2022-09-20T19:42:37.180Z,85.58
2022-09-20T19:45:20.580Z,86.49
2022-09-20T19:47:59.990Z,86.62
2022-09-20T19:50:33.659Z,85.99
2022-09-20T19:53:05.128Z,86.42
2022-09-20T19:55:35.430Z,85.92
2022-09-20T19:58:04.561Z,85.71
2022-09-20T20:00:33.871Z,85.72
2022-09-20T20:03:03.310Z,86.36
2022-09-20T20:05:34.435Z,85.93
2022-09-20T20:08:18.070Z,85.45
2022-09-20T20:11:00.090Z,86.21
2022-09-20T20:13:44.753Z,86.07
2022-09-20T20:16:17.371Z,85.40
2022-09-20T20:19:03.019Z,86.45
2022-09-20T20:21:45.550Z,86.38
2022-09-20T20:24:26.291Z,85.68
2022-09-20T20:26:55.183Z,84.76
2022-09-20T20:29:23.999Z,85.03
2022-09-20T20:31:52.821Z,85.64
2022-09-20T20:34:21.430Z,85.12
2022-09-20T20:36:54.855Z,85.13
2022-09-20T20:39:24.939Z,84.91
2022-09-20T20:41:53.689Z,84.91
2022-09-20T20:44:22.629Z,85.24
2022-09-20T20:46:51.145Z,84.90
2022-09-20T20:49:21.099Z,85.48
2022-09-20T20:51:51.221Z,85.28
2022-09-20T20:54:20.121Z,85.95
2022-09-20T20:56:49.004Z,85.93
2022-09-20T20:59:18.430Z,85.87
2022-09-20T21:01:47.143Z,85.13
2022-09-20T21:04:17.082Z,85.72
2022-09-20T21:06:45.711Z,85.26
2022-09-20T21:09:15.663Z,85.03
2022-09-20T21:11:44.663Z,85.38
2022-09-20T21:14:14.012Z,84.80
2022-09-20T21:16:44.184Z,85.66
2022-09-20T21:19:15.183Z,85.07
2022-09-20T21:21:45.861Z,84.71
2022-09-20T21:24:18.313Z,84.98
2022-09-20T21:26:47.764Z,85.25
2022-09-20T21:29:18.060Z,85.20
2022-09-20T21:31:47.872Z,85.56
2022-09-20T21:34:17.578Z,85.68
2022-09-20T21:36:46.254Z,85.69
2022-09-20T21:39:16.293Z,85.19
2022-09-20T21:41:48.082Z,85.06
2022-09-20T21:44:17.448Z,85.48
2022-09-20T21:46:48.641Z,84.86
2022-09-20T21:49:17.712Z,85.51
2022-09-20T21:51:46.360Z,85.28
2022-09-20T21:54:16.543Z,85.38
2022-09-20T21:56:45.192Z,85.84
2022-09-20T21:59:13.760Z,85.64
2022-09-20T22:01:42.500Z,85.56
2022-09-20T22:04:12.379Z,85.01
2022-09-20T22:06:42.501Z,85.25
2022-09-20T22:09:12.559Z,84.76
2022-09-20T22:11:45.415Z,85.79
2022-09-20T22:14:15.822Z,85.10
2022-09-20T22:16:46.252Z,85.87
2022-09-20T22:19:17.752Z,84.82
2022-09-20T22:21:48.226Z,85.24
2022-09-20T22:24:18.484Z,84.69
2022-09-20T22:26:50.879Z,84.32
2022-09-20T22:29:19.591Z,85.28
2022-09-20T22:31:50.273Z,84.64
2022-09-20T22:34:20.542Z,84.72
2022-09-20T22:36:49.576Z,84.78
2022-09-20T22:39:18.443Z,84.62
2022-09-20T22:41:49.221Z,85.29
2022-09-20T22:44:18.113Z,85.18
2022-09-20T22:46:46.634Z,84.87
2022-09-20T22:49:15.272Z,85.48
2022-09-20T22:51:43.931Z,85.45
2022-09-20T22:54:13.454Z,85.29
2022-09-20T22:56:42.706Z,85.69
2022-09-20T22:59:14.681Z,85.28
2022-09-20T23:01:46.488Z,85.31
2022-09-20T23:04:17.310Z,85.21
2022-09-20T23:06:48.434Z,85.55
2022-09-20T23:09:19.273Z,85.21
2022-09-20T23:11:48.442Z,85.31
2022-09-20T23:14:20.616Z,85.24
2022-09-20T23:16:49.572Z,85.54
2022-09-20T23:19:19.142Z,86.03
2022-09-20T23:21:47.804Z,85.40
2022-09-20T23:24:16.862Z,85.60
2022-09-20T23:26:46.013Z,86.25
2022-09-20T23:29:16.229Z,85.39
2022-09-20T23:31:48.746Z,85.91
2022-09-20T23:34:18.643Z,85.28
2022-09-20T23:36:47.878Z,85.30
2022-09-20T23:39:16.907Z,85.55
2022-09-20T23:41:50.651Z,85.62
2022-09-20T23:44:20.255Z,85.66
2022-09-20T23:46:50.305Z,85.29
2022-09-20T23:49:19.175Z,86.14
2022-09-20T23:51:47.714Z,84.58
2022-09-20T23:54:16.373Z,84.49
2022-09-20T23:56:44.955Z,85.31
2022-09-20T23:59:13.626Z,84.69
